createdAt,value
2019-03-03T00:01:11.432Z,8.40
2019-03-03T00:03:39.265Z,8.40
2019-03-03T00:06:06.492Z,8.40
2019-03-03T00:08:33.748Z,8.40
2019-03-03T00:11:00.975Z,8.40
2019-03-03T00:13:28.604Z,8.30
2019-03-03T00:15:55.819Z,8.30
2019-03-03T00:18:23.092Z,8.30
2019-03-03T00:20:50.319Z,8.30
2019-03-03T00:23:17.888Z,8.30
2019-03-03T00:25:45.113Z,8.40
2019-03-03T00:28:12.367Z,8.40
2019-03-03T00:30:39.588Z,8.40
2019-03-03T00:33:06.832Z,8.40
2019-03-03T00:35:34.052Z,8.50
2019-03-03T00:38:06.338Z,8.40
2019-03-03T00:40:43.044Z,8.40
2019-03-03T00:43:28.152Z,8.40
2019-03-03T00:46:17.448Z,8.40
2019-03-03T00:49:04.231Z,8.50
2019-03-03T00:51:39.530Z,8.40
2019-03-03T00:54:22.164Z,8.40
2019-03-03T00:56:57.486Z,8.30
2019-03-03T00:59:47.073Z,8.40
2019-03-03T01:02:21.073Z,8.30
2019-03-03T01:05:05.244Z,8.40
2019-03-03T01:07:41.182Z,8.50
2019-03-03T01:10:17.380Z,8.40
2019-03-03T01:12:54.720Z,8.40
2019-03-03T01:15:50.607Z,8.30
2019-03-03T01:18:29.300Z,8.30
2019-03-03T01:21:14.496Z,8.30
2019-03-03T01:24:04.579Z,8.40
2019-03-03T01:26:31.805Z,8.30
2019-03-03T01:28:59.296Z,8.30
2019-03-03T01:31:26.508Z,8.20
2019-03-03T01:33:54.167Z,8.30
2019-03-03T01:36:21.481Z,8.30
2019-03-03T01:38:48.748Z,8.30
2019-03-03T01:41:16.056Z,8.30
2019-03-03T01:43:43.304Z,8.30
2019-03-03T01:46:10.537Z,8.30
2019-03-03T01:48:38.136Z,8.20
2019-03-03T01:51:05.356Z,8.20
2019-03-03T01:53:32.925Z,8.20
2019-03-03T01:56:00.149Z,8.20
2019-03-03T01:58:27.400Z,8.20
2019-03-03T02:00:54.886Z,8.20
2019-03-03T02:03:22.273Z,8.30
2019-03-03T02:05:49.503Z,8.30
2019-03-03T02:08:16.799Z,8.20
2019-03-03T02:10:44.120Z,8.20
2019-03-03T02:13:11.344Z,8.20
2019-03-03T02:15:38.580Z,8.20
2019-03-03T02:18:06.165Z,8.10
2019-03-03T02:20:33.720Z,8.10
2019-03-03T02:23:00.941Z,8.00
2019-03-03T02:25:28.168Z,8.00
2019-03-03T02:27:55.387Z,7.90
2019-03-03T02:30:22.637Z,7.90
2019-03-03T02:32:49.858Z,8.00
2019-03-03T02:35:17.090Z,8.00
2019-03-03T02:37:44.815Z,8.00
2019-03-03T02:40:16.561Z,8.00
2019-03-03T02:42:44.002Z,8.10
2019-03-03T02:45:12.331Z,8.10
2019-03-03T02:47:39.548Z,8.10
2019-03-03T02:50:08.073Z,8.10
2019-03-03T02:52:35.291Z,8.10
2019-03-03T02:55:02.923Z,8.10
2019-03-03T02:57:30.604Z,8.10
2019-03-03T02:59:57.772Z,8.10
2019-03-03T03:02:43.629Z,8.20
2019-03-03T03:05:12.294Z,8.10
2019-03-03T03:07:44.937Z,8.10
2019-03-03T03:10:21.093Z,8.10
2019-03-03T03:13:05.044Z,8.10
2019-03-03T03:15:50.676Z,8.20
2019-03-03T03:18:35.702Z,8.20
2019-03-03T03:21:21.718Z,8.10
2019-03-03T03:24:07.529Z,8.20
2019-03-03T03:26:57.216Z,8.20
2019-03-03T03:29:37.657Z,8.20
2019-03-03T03:32:24.401Z,8.20
2019-03-03T03:35:03.667Z,8.20
2019-03-03T03:37:46.190Z,8.20
2019-03-03T03:40:31.372Z,8.20
2019-03-03T03:43:03.837Z,8.20
2019-03-03T03:45:46.540Z,8.20
2019-03-03T03:48:25.685Z,8.30
2019-03-03T03:51:04.572Z,8.20
2019-03-03T03:53:42.457Z,8.30
2019-03-03T03:56:31.723Z,8.30
2019-03-03T03:59:14.149Z,8.30
2019-03-03T04:02:04.261Z,8.30
2019-03-03T04:04:51.007Z,8.20
2019-03-03T04:07:30.000Z,8.20
2019-03-03T04:10:19.254Z,8.20
2019-03-03T04:13:02.164Z,8.20
2019-03-03T04:15:51.948Z,8.10
2019-03-03T04:18:38.694Z,8.20
2019-03-03T04:21:16.345Z,8.20
2019-03-03T04:23:54.964Z,8.20
2019-03-03T04:26:40.602Z,8.30
2019-03-03T04:29:29.903Z,8.10
2019-03-03T04:32:19.540Z,8.20
2019-03-03T04:35:04.664Z,8.20
2019-03-03T04:37:51.729Z,8.10
2019-03-03T04:40:24.252Z,8.20
2019-03-03T04:43:03.379Z,8.20
2019-03-03T04:45:42.202Z,8.20
2019-03-03T04:48:34.487Z,8.20
2019-03-03T04:51:12.173Z,8.20
2019-03-03T04:53:51.172Z,8.10
2019-03-03T04:56:49.752Z,8.20
2019-03-03T04:59:25.420Z,8.10
2019-03-03T05:02:02.183Z,8.10
2019-03-03T05:04:38.208Z,8.10
2019-03-03T05:07:12.350Z,8.10
2019-03-03T05:09:45.948Z,8.10
2019-03-03T05:12:24.770Z,8.20
2019-03-03T05:14:54.574Z,8.20
2019-03-03T05:17:50.371Z,8.10
2019-03-03T05:20:17.626Z,8.10
2019-03-03T05:22:44.864Z,8.20
2019-03-03T05:25:12.417Z,8.20
2019-03-03T05:27:39.637Z,8.20
2019-03-03T05:30:06.897Z,8.20
2019-03-03T05:32:34.127Z,8.20
2019-03-03T05:35:01.344Z,8.20
2019-03-03T05:37:28.564Z,8.20
2019-03-03T05:39:55.800Z,8.20
2019-03-03T05:42:23.012Z,8.20
2019-03-03T05:44:50.236Z,8.10
2019-03-03T05:47:17.775Z,8.20
2019-03-03T05:49:45.008Z,8.20
2019-03-03T05:52:12.230Z,8.10
2019-03-03T05:54:39.784Z,8.10
2019-03-03T05:57:07.088Z,8.10
2019-03-03T05:59:34.756Z,8.20
2019-03-03T06:02:02.024Z,8.20
2019-03-03T06:04:29.264Z,8.20
2019-03-03T06:06:56.500Z,8.20
2019-03-03T06:09:23.756Z,8.20
2019-03-03T06:11:50.988Z,8.10
2019-03-03T06:14:18.619Z,8.20
2019-03-03T06:16:45.898Z,8.20
2019-03-03T06:19:13.372Z,8.20
2019-03-03T06:21:40.596Z,8.20
2019-03-03T06:24:07.920Z,8.20
2019-03-03T06:26:35.146Z,8.20
2019-03-03T06:29:02.396Z,8.20
2019-03-03T06:31:29.636Z,8.10
2019-03-03T06:33:56.890Z,8.20
2019-03-03T06:36:24.436Z,8.20
2019-03-03T06:38:51.697Z,8.20
2019-03-03T06:41:18.929Z,8.20
2019-03-03T06:43:46.172Z,8.20
2019-03-03T06:46:13.394Z,8.20
2019-03-03T06:48:40.648Z,8.20
2019-03-03T06:51:08.171Z,8.20
2019-03-03T06:53:35.725Z,8.20
2019-03-03T06:56:02.948Z,8.20
2019-03-03T06:58:30.452Z,8.20
2019-03-03T07:00:57.856Z,8.20
2019-03-03T07:03:25.379Z,8.30
2019-03-03T07:05:53.005Z,8.30
2019-03-03T07:08:20.461Z,8.30
2019-03-03T07:10:48.020Z,8.20
2019-03-03T07:13:15.172Z,8.20
2019-03-03T07:15:42.737Z,8.30
2019-03-03T07:18:10.300Z,8.30
2019-03-03T07:20:37.975Z,8.30
2019-03-03T07:23:05.620Z,8.20
2019-03-03T07:25:32.852Z,8.20
2019-03-03T07:28:00.072Z,8.20
2019-03-03T07:30:27.579Z,8.20
2019-03-03T07:33:13.056Z,8.20
2019-03-03T07:35:40.400Z,8.20
2019-03-03T07:38:07.556Z,8.40
2019-03-03T07:40:34.780Z,8.30
2019-03-03T07:43:02.006Z,8.20
2019-03-03T07:45:29.522Z,8.20
2019-03-03T07:47:56.785Z,8.20
2019-03-03T07:50:24.243Z,8.30
2019-03-03T07:52:51.474Z,8.20
2019-03-03T07:55:18.733Z,8.30
2019-03-03T07:57:46.939Z,8.40
2019-03-03T08:00:14.412Z,8.40
2019-03-03T08:02:41.637Z,8.40
2019-03-03T08:05:09.124Z,8.30
2019-03-03T08:07:36.348Z,8.30
2019-03-03T08:10:04.389Z,8.40
2019-03-03T08:12:31.620Z,8.40
2019-03-03T08:14:59.132Z,8.50
2019-03-03T08:17:26.670Z,8.50
2019-03-03T08:19:53.933Z,8.40
2019-03-03T08:22:21.168Z,8.50
2019-03-03T08:24:48.428Z,8.60
2019-03-03T08:27:15.660Z,8.60
2019-03-03T08:29:43.353Z,8.60
2019-03-03T08:36:13.727Z,8.70
2019-03-03T08:38:40.940Z,8.70
2019-03-03T08:41:08.169Z,8.60
2019-03-03T08:43:53.008Z,8.70
2019-03-03T08:46:54.694Z,8.70
2019-03-03T08:49:27.402Z,8.70
2019-03-03T08:52:18.504Z,8.70
2019-03-03T08:55:17.331Z,8.70
2019-03-03T08:57:59.037Z,8.90
2019-03-03T09:00:48.376Z,8.80
2019-03-03T09:03:34.143Z,8.90
2019-03-03T09:06:39.380Z,8.90
2019-03-03T09:09:25.136Z,8.90
2019-03-03T09:12:14.493Z,9.00
2019-03-03T09:14:50.459Z,8.90
2019-03-03T09:17:28.233Z,9.00
2019-03-03T09:20:04.157Z,9.10
2019-03-03T09:23:19.536Z,9.20
2019-03-03T09:26:11.848Z,9.20
2019-03-03T09:28:53.536Z,9.20
2019-03-03T09:31:32.605Z,9.20
2019-03-03T09:34:19.961Z,9.10
2019-03-03T09:37:05.691Z,9.30
2019-03-03T09:39:55.940Z,9.30
2019-03-03T09:42:36.530Z,9.30
2019-03-03T09:45:25.073Z,9.40
2019-03-03T09:48:00.082Z,9.40
2019-03-03T09:50:34.756Z,9.40
2019-03-03T09:53:15.788Z,9.30
2019-03-03T09:56:15.549Z,9.30
2019-03-03T09:59:05.235Z,9.30
2019-03-03T10:01:49.240Z,9.40
2019-03-03T10:04:48.438Z,9.40
2019-03-03T10:07:28.724Z,9.40
2019-03-03T10:10:07.503Z,9.50
2019-03-03T10:13:12.528Z,9.50
2019-03-03T10:15:55.464Z,9.50
2019-03-03T10:18:38.953Z,9.40
2019-03-03T10:21:40.788Z,9.60
2019-03-03T10:24:17.170Z,9.70
2019-03-03T10:27:09.872Z,9.80
2019-03-03T10:30:01.180Z,9.80
2019-03-03T10:32:39.824Z,9.80
2019-03-03T10:35:18.796Z,9.80
2019-03-03T10:37:58.801Z,10.00
2019-03-03T10:40:36.880Z,10.00
2019-03-03T10:43:29.218Z,10.20
2019-03-03T10:46:10.608Z,10.20
2019-03-03T10:48:58.265Z,10.20
2019-03-03T10:51:59.936Z,10.30
2019-03-03T10:54:49.351Z,10.40
2019-03-03T10:57:25.629Z,10.50
2019-03-03T11:00:10.985Z,10.50
2019-03-03T11:02:56.432Z,10.60
2019-03-03T11:05:55.115Z,10.80
2019-03-03T11:08:42.138Z,11.10
2019-03-03T11:11:23.056Z,11.20
2019-03-03T11:14:20.369Z,11.30
2019-03-03T11:17:06.441Z,10.90
2019-03-03T11:19:51.940Z,11.00
2019-03-03T11:22:47.642Z,10.90
2019-03-03T11:25:23.172Z,10.80
2019-03-03T11:28:08.353Z,10.70
2019-03-03T11:31:00.513Z,10.60
2019-03-03T11:33:45.772Z,10.60
2019-03-03T11:36:31.525Z,10.60
2019-03-03T11:39:10.112Z,10.60
2019-03-03T11:41:56.129Z,10.40
2019-03-03T11:44:45.489Z,10.50
2019-03-03T11:47:22.951Z,10.50
2019-03-03T11:50:16.970Z,10.60
2019-03-03T11:53:04.053Z,10.50
2019-03-03T11:55:48.388Z,10.60
2019-03-03T11:58:53.275Z,10.60
2019-03-03T12:01:49.001Z,10.60
2019-03-03T12:04:35.188Z,10.60
2019-03-03T12:07:20.685Z,10.60
2019-03-03T12:10:00.000Z,10.60
2019-03-03T12:12:45.138Z,10.50
2019-03-03T12:15:17.444Z,10.50
2019-03-03T12:17:50.560Z,10.50
2019-03-03T12:20:23.828Z,10.50
2019-03-03T12:23:09.313Z,10.50
2019-03-03T12:25:42.900Z,10.50
2019-03-03T12:28:38.628Z,10.60
2019-03-03T12:31:12.636Z,10.50
2019-03-03T12:33:47.568Z,10.40
2019-03-03T12:36:36.986Z,10.40
2019-03-03T12:39:34.595Z,10.50
2019-03-03T12:42:20.148Z,10.50
2019-03-03T12:44:55.733Z,10.40
2019-03-03T12:47:42.489Z,10.40
2019-03-03T12:50:28.539Z,10.40
2019-03-03T12:53:18.269Z,10.40
2019-03-03T12:55:52.109Z,10.30
2019-03-03T12:58:31.580Z,10.40
2019-03-03T13:01:30.650Z,10.40
2019-03-03T13:04:20.245Z,10.50
2019-03-03T13:07:14.610Z,10.60
2019-03-03T13:09:53.567Z,10.70
2019-03-03T13:12:46.153Z,10.50
2019-03-03T13:15:38.841Z,10.30
2019-03-03T13:18:25.907Z,10.40
2019-03-03T13:21:12.648Z,10.50
2019-03-03T13:23:59.728Z,10.50
2019-03-03T13:26:46.477Z,10.50
2019-03-03T13:29:51.368Z,10.50
2019-03-03T13:32:27.069Z,10.30
2019-03-03T13:35:12.327Z,10.30
2019-03-03T13:38:05.622Z,10.20
2019-03-03T13:40:51.004Z,10.20
2019-03-03T13:43:18.588Z,10.30
2019-03-03T13:45:45.833Z,10.30
2019-03-03T13:48:13.064Z,10.20
2019-03-03T13:50:40.288Z,10.30
2019-03-03T13:53:07.822Z,10.20
2019-03-03T13:55:35.269Z,10.20
2019-03-03T13:58:02.813Z,10.30
2019-03-03T14:00:30.069Z,10.40
2019-03-03T14:02:57.338Z,10.50
2019-03-03T14:05:24.576Z,10.40
2019-03-03T14:07:52.137Z,10.40
2019-03-03T14:10:19.908Z,10.30
2019-03-03T14:12:47.249Z,10.30
2019-03-03T14:15:15.376Z,10.30
2019-03-03T14:17:42.981Z,10.40
2019-03-03T14:20:12.644Z,10.50
2019-03-03T14:22:40.146Z,10.50
2019-03-03T14:25:07.397Z,10.60
2019-03-03T14:27:34.628Z,10.60
2019-03-03T14:30:01.864Z,10.70
2019-03-03T14:32:29.358Z,10.80
2019-03-03T14:34:56.588Z,10.80
2019-03-03T14:37:23.814Z,10.70
2019-03-03T14:39:51.152Z,10.80
2019-03-03T14:42:18.380Z,10.80
2019-03-03T14:44:45.616Z,10.70
2019-03-03T14:47:12.832Z,10.80
2019-03-03T14:49:40.056Z,10.70
2019-03-03T14:52:07.600Z,10.70
2019-03-03T14:54:34.848Z,10.70
2019-03-03T14:57:02.389Z,10.70
2019-03-03T14:59:29.952Z,10.70
2019-03-03T15:01:57.473Z,10.80
2019-03-03T15:04:24.801Z,10.80
2019-03-03T15:06:52.040Z,10.80
2019-03-03T15:09:20.649Z,10.80
2019-03-03T15:11:48.189Z,10.80
2019-03-03T15:14:16.036Z,10.70
2019-03-03T15:16:43.293Z,10.70
2019-03-03T15:19:11.158Z,10.70
2019-03-03T15:21:38.435Z,10.70
2019-03-03T15:24:05.657Z,10.80
2019-03-03T15:26:33.219Z,10.80
2019-03-03T15:29:00.869Z,10.80
2019-03-03T15:31:37.285Z,10.80
2019-03-03T15:33:57.708Z,10.80
2019-03-03T15:36:24.988Z,10.80
2019-03-03T15:38:52.212Z,10.80
2019-03-03T15:41:19.473Z,10.80
2019-03-03T15:43:46.696Z,10.80
2019-03-03T15:46:14.320Z,10.80
2019-03-03T15:48:41.549Z,10.80
2019-03-03T15:51:08.807Z,10.90
2019-03-03T15:53:36.047Z,10.80
2019-03-03T15:56:03.388Z,10.80
2019-03-03T15:58:30.668Z,10.80
2019-03-03T16:00:58.508Z,10.80
2019-03-03T16:03:26.071Z,10.80
2019-03-03T16:05:53.329Z,10.90
2019-03-03T16:08:20.544Z,10.90
2019-03-03T16:10:47.808Z,10.80
2019-03-03T16:13:15.035Z,10.80
2019-03-03T16:15:42.315Z,10.80
2019-03-03T16:18:09.892Z,10.70
2019-03-03T16:20:37.135Z,10.70
2019-03-03T16:23:05.019Z,10.80
2019-03-03T16:25:32.565Z,10.70
2019-03-03T16:27:59.792Z,10.70
2019-03-03T16:30:27.019Z,10.60
2019-03-03T16:32:54.836Z,10.70
2019-03-03T16:35:22.394Z,10.60
2019-03-03T16:37:50.129Z,10.70
2019-03-03T16:40:19.003Z,10.60
2019-03-03T16:42:46.255Z,10.60
2019-03-03T16:45:13.853Z,10.70
2019-03-03T16:47:41.416Z,10.70
2019-03-03T16:50:11.177Z,10.70
2019-03-03T16:52:38.434Z,10.70
2019-03-03T16:55:06.196Z,10.70
2019-03-03T16:57:33.805Z,10.70
2019-03-03T17:00:01.027Z,10.70
2019-03-03T17:02:28.276Z,10.60
2019-03-03T17:04:55.496Z,10.70
2019-03-03T17:07:22.747Z,10.60
2019-03-03T17:09:50.053Z,10.70
2019-03-03T17:12:17.711Z,10.70
2019-03-03T17:15:05.477Z,10.60
2019-03-03T17:17:33.026Z,10.60
2019-03-03T17:20:00.320Z,10.70
2019-03-03T17:22:30.480Z,11.10
2019-03-03T17:24:58.457Z,10.90
2019-03-03T17:27:25.709Z,10.70
2019-03-03T17:29:52.933Z,10.60
2019-03-03T17:32:20.193Z,10.60
2019-03-03T17:34:47.431Z,10.60
2019-03-03T17:37:14.774Z,10.60
2019-03-03T17:39:42.272Z,10.50
2019-03-03T17:42:09.877Z,10.40
2019-03-03T17:44:37.699Z,10.30
2019-03-03T17:47:05.256Z,10.30
2019-03-03T17:49:32.485Z,10.30
2019-03-03T17:51:59.752Z,10.30
2019-03-03T17:54:27.234Z,10.30
2019-03-03T17:56:54.485Z,10.30
2019-03-03T17:59:21.620Z,10.40
2019-03-03T18:01:48.860Z,10.30
2019-03-03T18:04:16.573Z,10.40
2019-03-03T18:06:44.300Z,10.40
2019-03-03T18:09:11.532Z,10.30
2019-03-03T18:11:38.760Z,10.30
2019-03-03T18:14:06.262Z,10.30
2019-03-03T18:16:33.488Z,10.20
2019-03-03T18:19:00.780Z,10.30
2019-03-03T18:21:28.001Z,10.30
2019-03-03T18:23:55.321Z,10.30
2019-03-03T18:26:22.548Z,10.30
2019-03-03T18:28:49.500Z,10.30
2019-03-03T18:31:17.020Z,10.30
2019-03-03T18:33:44.284Z,10.40
2019-03-03T18:36:11.616Z,10.50
2019-03-03T18:38:38.868Z,10.50
2019-03-03T18:41:06.103Z,10.50
2019-03-03T18:43:33.445Z,10.50
2019-03-03T18:46:00.804Z,10.50
2019-03-03T18:48:28.055Z,10.50
2019-03-03T18:50:55.280Z,10.50
2019-03-03T18:53:22.803Z,10.50
2019-03-03T18:55:50.108Z,10.50
2019-03-03T18:58:17.371Z,10.40
2019-03-03T19:00:44.688Z,10.50
2019-03-03T19:03:11.945Z,10.40
2019-03-03T19:05:39.464Z,10.30
2019-03-03T19:08:06.721Z,10.40
2019-03-03T19:10:34.012Z,10.40
2019-03-03T19:13:01.574Z,10.50
2019-03-03T19:15:29.095Z,10.40
2019-03-03T19:17:56.343Z,10.40
2019-03-03T19:20:23.900Z,10.50
2019-03-03T19:22:51.249Z,10.40
2019-03-03T19:25:18.853Z,10.40
2019-03-03T19:27:46.369Z,10.40
2019-03-03T19:30:16.136Z,10.40
2019-03-03T19:32:43.961Z,10.50
2019-03-03T19:35:12.220Z,10.40
2019-03-03T19:37:39.780Z,10.40
2019-03-03T19:40:07.520Z,10.30
2019-03-03T19:42:34.836Z,10.40
2019-03-03T19:45:03.009Z,10.40
2019-03-03T19:47:30.236Z,10.30
2019-03-03T19:49:57.468Z,10.20
2019-03-03T19:52:25.154Z,10.10
2019-03-03T19:54:52.713Z,10.10
2019-03-03T19:57:20.256Z,10.20
2019-03-03T19:59:47.480Z,10.20
2019-03-03T20:02:15.089Z,10.10
2019-03-03T20:04:42.312Z,10.10
2019-03-03T20:07:09.540Z,10.20
2019-03-03T20:09:36.772Z,10.30
2019-03-03T20:12:03.998Z,10.40
2019-03-03T20:14:31.225Z,10.40
2019-03-03T20:16:58.448Z,10.50
2019-03-03T20:19:25.977Z,10.50
2019-03-03T20:21:53.607Z,10.50
2019-03-03T20:24:21.386Z,10.50
2019-03-03T20:26:49.221Z,10.50
2019-03-03T20:29:16.489Z,10.50
2019-03-03T20:31:44.061Z,10.60
2019-03-03T20:34:12.115Z,10.50
2019-03-03T20:36:39.432Z,10.50
2019-03-03T20:39:06.773Z,10.50
2019-03-03T20:41:33.998Z,10.50
2019-03-03T20:44:01.253Z,10.50
2019-03-03T20:46:28.473Z,10.60
2019-03-03T20:48:56.026Z,10.70
2019-03-03T20:51:23.262Z,10.60
2019-03-03T20:53:50.557Z,10.60
2019-03-03T20:56:17.781Z,10.60
2019-03-03T20:58:45.009Z,10.70
2019-03-03T21:01:12.245Z,10.70
2019-03-03T21:03:39.468Z,10.70
2019-03-03T21:06:06.702Z,10.70
2019-03-03T21:08:33.924Z,10.70
2019-03-03T21:11:01.512Z,10.70
2019-03-03T21:13:28.780Z,10.70
2019-03-03T21:15:57.959Z,10.70
2019-03-03T21:18:25.828Z,10.70
2019-03-03T21:20:53.053Z,10.60
2019-03-03T21:23:20.629Z,10.70
2019-03-03T21:25:47.968Z,10.60
2019-03-03T21:28:15.188Z,10.60
2019-03-03T21:30:42.408Z,10.60
2019-03-03T21:33:09.684Z,10.70
2019-03-03T21:35:37.181Z,10.80
2019-03-03T21:38:04.500Z,10.70
2019-03-03T21:40:31.631Z,10.80
2019-03-03T21:42:58.864Z,10.80
2019-03-03T21:45:26.188Z,10.80
2019-03-03T21:47:53.920Z,10.80
2019-03-03T21:50:21.395Z,10.90
2019-03-03T21:52:48.968Z,10.90
2019-03-03T21:55:16.197Z,11.00
2019-03-03T21:57:43.438Z,11.00
2019-03-03T22:00:30.683Z,11.00
2019-03-03T22:02:58.277Z,11.00
2019-03-03T22:05:25.641Z,11.10
2019-03-03T22:07:53.453Z,11.10
2019-03-03T22:10:28.489Z,11.00
2019-03-03T22:12:56.237Z,11.00
2019-03-03T22:15:23.832Z,11.00
2019-03-03T22:17:51.394Z,11.00
2019-03-03T22:20:18.649Z,10.90
2019-03-03T22:22:45.872Z,11.00
2019-03-03T22:25:13.377Z,10.90
2019-03-03T22:27:41.010Z,11.00
2019-03-03T22:30:08.574Z,11.00
2019-03-03T22:32:35.883Z,11.00
2019-03-03T22:35:03.490Z,10.90
2019-03-03T22:37:30.800Z,10.70
2019-03-03T22:39:58.036Z,10.60
2019-03-03T22:42:25.801Z,10.60
2019-03-03T22:44:53.308Z,10.60
2019-03-03T22:47:20.873Z,10.50
2019-03-03T22:49:49.555Z,10.60
2019-03-03T22:52:16.785Z,10.50
2019-03-03T22:54:44.022Z,10.60
2019-03-03T22:57:11.390Z,10.60
2019-03-03T22:59:38.705Z,10.50
2019-03-03T23:02:06.336Z,10.50
2019-03-03T23:04:50.945Z,10.60
2019-03-03T23:07:49.676Z,10.70
2019-03-03T23:10:45.948Z,10.80
2019-03-03T23:13:22.472Z,10.80
2019-03-03T23:16:03.431Z,10.90
2019-03-03T23:19:03.013Z,10.90
2019-03-03T23:21:40.836Z,10.90
2019-03-03T23:24:44.828Z,10.90
2019-03-03T23:27:12.048Z,11.00
2019-03-03T23:29:39.271Z,11.10
2019-03-03T23:32:07.141Z,11.10
2019-03-03T23:34:34.724Z,11.10
2019-03-03T23:37:01.974Z,11.10
2019-03-03T23:39:29.229Z,11.10
2019-03-03T23:41:56.795Z,11.10
2019-03-03T23:44:24.020Z,11.10
2019-03-03T23:46:51.572Z,11.20
2019-03-03T23:49:18.788Z,11.20
2019-03-03T23:51:46.031Z,11.30
2019-03-03T23:54:13.264Z,11.30
2019-03-03T23:56:40.518Z,11.30
2019-03-03T23:59:07.742Z,11.40
